sensor_id;sensor_type;location;lat;lon;timestamp;pressure;altitude;pressure_sealevel;temperature;humidity
9261;BME280;4667;42.726;23.252;2022-07-23T09:27:53;95434.97;;;39.93;nan
9261;BME280;4667;42.726;23.252;2022-07-23T09:30:21;95436.44;;;39.37;nan
9261;BME280;4667;42.726;23.252;2022-07-23T09:33:04;95433.59;;;40.51;nan
9261;BME280;4667;42.726;23.252;2022-07-23T09:35:44;95429.22;;;41.09;nan
9261;BME280;4667;42.726;23.252;2022-07-23T09:38:12;95424.63;;;40.37;nan
9261;BME280;4667;42.726;23.252;2022-07-23T09:40:40;95428.09;;;39.71;nan
9261;BME280;4667;42.726;23.252;2022-07-23T09:43:07;95414.59;;;39.54;nan
9261;BME280;4667;42.726;23.252;2022-07-23T09:45:34;95416.91;;;40.06;nan
9261;BME280;4667;42.726;23.252;2022-07-23T09:48:11;95410.34;;;40.28;nan
9261;BME280;4667;42.726;23.252;2022-07-23T09:50:39;95408.97;;;40.71;nan
9261;BME280;4667;42.726;23.252;2022-07-23T09:53:06;95412.44;;;41.48;nan
9261;BME280;4667;42.726;23.252;2022-07-23T09:55:35;95408.91;;;41.13;nan
9261;BME280;4667;42.726;23.252;2022-07-23T09:58:05;95403.75;;;42.00;nan
9261;BME280;4667;42.726;23.252;2022-07-23T10:00:34;95398.53;;;42.06;nan
9261;BME280;4667;42.726;23.252;2022-07-23T10:03:01;95403.13;;;41.65;nan
9261;BME280;4667;42.726;23.252;2022-07-23T10:05:30;95400.13;;;42.35;nan
9261;BME280;4667;42.726;23.252;2022-07-23T10:07:57;95395.66;;;42.42;nan
9261;BME280;4667;42.726;23.252;2022-07-23T10:10:27;95392.81;;;41.69;nan
9261;BME280;4667;42.726;23.252;2022-07-23T10:12:54;95382.97;;;42.07;nan
9261;BME280;4667;42.726;23.252;2022-07-23T10:15:39;95393.09;;;42.37;nan
9261;BME280;4667;42.726;23.252;2022-07-23T10:18:06;95384.69;;;41.92;nan
9261;BME280;4667;42.726;23.252;2022-07-23T10:20:36;95386.31;;;42.32;nan
9261;BME280;4667;42.726;23.252;2022-07-23T10:23:10;95381.59;;;42.63;nan
9261;BME280;4667;42.726;23.252;2022-07-23T10:25:41;95383.41;;;42.97;nan
9261;BME280;4667;42.726;23.252;2022-07-23T10:28:33;95382.69;;;42.78;nan
9261;BME280;4667;42.726;23.252;2022-07-23T10:31:17;95375.19;;;42.72;nan
9261;BME280;4667;42.726;23.252;2022-07-23T10:33:56;95367.97;;;42.81;nan
9261;BME280;4667;42.726;23.252;2022-07-23T10:36:30;95369.00;;;43.14;nan
9261;BME280;4667;42.726;23.252;2022-07-23T10:39:03;95367.16;;;43.48;nan
9261;BME280;4667;42.726;23.252;2022-07-23T10:41:32;95357.59;;;43.14;nan
9261;BME280;4667;42.726;23.252;2022-07-23T10:44:07;95368.66;;;43.39;nan
9261;BME280;4667;42.726;23.252;2022-07-23T10:46:36;95368.34;;;43.45;nan
9261;BME280;4667;42.726;23.252;2022-07-23T10:49:26;95359.56;;;42.93;nan
9261;BME280;4667;42.726;23.252;2022-07-23T10:52:19;95358.16;;;43.32;nan
9261;BME280;4667;42.726;23.252;2022-07-23T10:54:47;95354.75;;;43.24;nan
9261;BME280;4667;42.726;23.252;2022-07-23T10:57:16;95354.28;;;43.28;nan
9261;BME280;4667;42.726;23.252;2022-07-23T11:02:52;95330.66;;;43.87;nan
9261;BME280;4667;42.726;23.252;2022-07-23T11:05:21;95330.44;;;44.04;nan
9261;BME280;4667;42.726;23.252;2022-07-23T11:08:13;95332.75;;;43.96;nan
9261;BME280;4667;42.726;23.252;2022-07-23T11:10:51;95325.25;;;43.50;nan
9261;BME280;4667;42.726;23.252;2022-07-23T11:13:37;95328.19;;;43.72;nan
9261;BME280;4667;42.726;23.252;2022-07-23T11:16:21;95318.13;;;43.71;nan
9261;BME280;4667;42.726;23.252;2022-07-23T11:19:14;95309.75;;;43.94;nan
9261;BME280;4667;42.726;23.252;2022-07-23T11:21:47;95303.56;;;44.28;nan
9261;BME280;4667;42.726;23.252;2022-07-23T11:24:20;95312.28;;;44.30;nan
9261;BME280;4667;42.726;23.252;2022-07-23T11:29:44;95305.81;;;44.30;nan
9261;BME280;4667;42.726;23.252;2022-07-23T11:32:22;95302.59;;;44.57;nan
9261;BME280;4667;42.726;23.252;2022-07-23T11:34:51;95302.78;;;44.92;nan
9261;BME280;4667;42.726;23.252;2022-07-23T11:37:36;95308.59;;;44.94;nan
9261;BME280;4667;42.726;23.252;2022-07-23T11:40:07;95306.56;;;44.73;nan
9261;BME280;4667;42.726;23.252;2022-07-23T11:42:37;95291.50;;;45.05;nan
9261;BME280;4667;42.726;23.252;2022-07-23T11:45:06;95287.66;;;45.57;nan
9261;BME280;4667;42.726;23.252;2022-07-23T11:47:34;95286.31;;;45.81;nan
9261;BME280;4667;42.726;23.252;2022-07-23T11:50:05;95285.47;;;45.23;nan
9261;BME280;4667;42.726;23.252;2022-07-23T11:52:32;95281.72;;;45.20;nan
9261;BME280;4667;42.726;23.252;2022-07-23T11:55:01;95279.13;;;45.36;nan
9261;BME280;4667;42.726;23.252;2022-07-23T11:57:32;95274.13;;;45.25;nan
9261;BME280;4667;42.726;23.252;2022-07-23T12:00:04;95287.44;;;44.33;nan
9261;BME280;4667;42.726;23.252;2022-07-23T12:02:32;95275.97;;;44.76;nan
9261;BME280;4667;42.726;23.252;2022-07-23T12:04:59;95272.91;;;45.28;nan
9261;BME280;4667;42.726;23.252;2022-07-23T12:07:32;95277.47;;;44.77;nan
9261;BME280;4667;42.726;23.252;2022-07-23T12:10:02;95270.69;;;45.38;nan
9261;BME280;4667;42.726;23.252;2022-07-23T12:12:35;95271.59;;;45.52;nan
9261;BME280;4667;42.726;23.252;2022-07-23T12:15:03;95264.97;;;45.49;nan
9261;BME280;4667;42.726;23.252;2022-07-23T12:17:32;95268.06;;;45.42;nan
9261;BME280;4667;42.726;23.252;2022-07-23T12:20:00;95260.38;;;45.56;nan
9261;BME280;4667;42.726;23.252;2022-07-23T12:22:36;95258.31;;;45.24;nan
9261;BME280;4667;42.726;23.252;2022-07-23T12:25:05;95251.19;;;45.46;nan
9261;BME280;4667;42.726;23.252;2022-07-23T12:27:33;95257.66;;;45.70;nan
9261;BME280;4667;42.726;23.252;2022-07-23T12:30:19;95238.84;;;45.67;nan
9261;BME280;4667;42.726;23.252;2022-07-23T12:32:48;95252.66;;;45.70;nan
9261;BME280;4667;42.726;23.252;2022-07-23T12:35:16;95235.50;;;45.70;nan
9261;BME280;4667;42.726;23.252;2022-07-23T12:37:46;95237.97;;;45.64;nan
9261;BME280;4667;42.726;23.252;2022-07-23T12:40:23;95242.59;;;45.58;nan
9261;BME280;4667;42.726;23.252;2022-07-23T12:42:51;95238.44;;;45.26;nan
9261;BME280;4667;42.726;23.252;2022-07-23T12:45:19;95240.59;;;45.60;nan
9261;BME280;4667;42.726;23.252;2022-07-23T12:47:55;95227.00;;;45.26;nan
9261;BME280;4667;42.726;23.252;2022-07-23T12:50:40;95225.88;;;45.89;nan
9261;BME280;4667;42.726;23.252;2022-07-23T12:53:14;95230.09;;;45.41;nan
9261;BME280;4667;42.726;23.252;2022-07-23T12:55:42;95221.78;;;45.69;nan
9261;BME280;4667;42.726;23.252;2022-07-23T12:58:14;95223.38;;;45.95;nan
9261;BME280;4667;42.726;23.252;2022-07-23T13:01:00;95221.13;;;46.05;nan
9261;BME280;4667;42.726;23.252;2022-07-23T13:03:30;95226.13;;;46.05;nan
9261;BME280;4667;42.726;23.252;2022-07-23T13:05:58;95220.19;;;45.54;nan
9261;BME280;4667;42.726;23.252;2022-07-23T13:08:28;95211.47;;;45.87;nan
9261;BME280;4667;42.726;23.252;2022-07-23T13:10:56;95216.31;;;45.84;nan
9261;BME280;4667;42.726;23.252;2022-07-23T13:13:24;95210.06;;;45.65;nan
9261;BME280;4667;42.726;23.252;2022-07-23T13:15:52;95214.72;;;45.58;nan
9261;BME280;4667;42.726;23.252;2022-07-23T13:18:20;95215.81;;;45.53;nan
9261;BME280;4667;42.726;23.252;2022-07-23T13:20:47;95210.44;;;45.36;nan
9261;BME280;4667;42.726;23.252;2022-07-23T13:23:15;95216.91;;;45.13;nan
9261;BME280;4667;42.726;23.252;2022-07-23T13:25:44;95213.56;;;45.28;nan
9261;BME280;4667;42.726;23.252;2022-07-23T13:28:11;95208.09;;;45.21;nan
9261;BME280;4667;42.726;23.252;2022-07-23T13:30:39;95199.69;;;45.01;nan
9261;BME280;4667;42.726;23.252;2022-07-23T13:33:06;95203.72;;;45.31;nan
9261;BME280;4667;42.726;23.252;2022-07-23T13:35:33;95196.47;;;44.95;nan
9261;BME280;4667;42.726;23.252;2022-07-23T13:38:00;95195.94;;;44.87;nan
9261;BME280;4667;42.726;23.252;2022-07-23T13:40:27;95188.97;;;44.79;nan
9261;BME280;4667;42.726;23.252;2022-07-23T13:42:56;95192.22;;;44.85;nan
9261;BME280;4667;42.726;23.252;2022-07-23T13:45:22;95191.72;;;45.00;nan
9261;BME280;4667;42.726;23.252;2022-07-23T13:47:49;95184.88;;;44.93;nan
9261;BME280;4667;42.726;23.252;2022-07-23T13:50:16;95190.72;;;44.84;nan
9261;BME280;4667;42.726;23.252;2022-07-23T13:52:43;95175.78;;;44.73;nan
9261;BME280;4667;42.726;23.252;2022-07-23T13:55:10;95177.31;;;44.53;nan
9261;BME280;4667;42.726;23.252;2022-07-23T13:57:37;95179.06;;;44.91;nan
9261;BME280;4667;42.726;23.252;2022-07-23T14:00:07;95175.31;;;44.89;nan
9261;BME280;4667;42.726;23.252;2022-07-23T14:02:37;95174.38;;;44.63;nan
9261;BME280;4667;42.726;23.252;2022-07-23T14:05:05;95172.00;;;44.59;nan
9261;BME280;4667;42.726;23.252;2022-07-23T14:07:33;95176.63;;;44.31;nan
9261;BME280;4667;42.726;23.252;2022-07-23T14:10:00;95178.38;;;44.37;nan
9261;BME280;4667;42.726;23.252;2022-07-23T14:12:27;95179.94;;;44.49;nan
9261;BME280;4667;42.726;23.252;2022-07-23T14:14:53;95169.22;;;44.83;nan
9261;BME280;4667;42.726;23.252;2022-07-23T14:17:22;95167.81;;;44.72;nan
9261;BME280;4667;42.726;23.252;2022-07-23T14:19:50;95168.50;;;44.49;nan
9261;BME280;4667;42.726;23.252;2022-07-23T14:22:17;95180.34;;;44.67;nan
9261;BME280;4667;42.726;23.252;2022-07-23T14:24:43;95174.03;;;44.68;nan
9261;BME280;4667;42.726;23.252;2022-07-23T14:27:10;95162.38;;;44.88;nan
9261;BME280;4667;42.726;23.252;2022-07-23T14:29:37;95166.41;;;45.06;nan
9261;BME280;4667;42.726;23.252;2022-07-23T14:32:04;95164.03;;;45.02;nan
9261;BME280;4667;42.726;23.252;2022-07-23T14:34:33;95166.72;;;44.77;nan
9261;BME280;4667;42.726;23.252;2022-07-23T14:37:00;95164.78;;;44.58;nan
9261;BME280;4667;42.726;23.252;2022-07-23T14:39:28;95159.41;;;44.97;nan
9261;BME280;4667;42.726;23.252;2022-07-23T14:41:54;95156.28;;;44.82;nan
9261;BME280;4667;42.726;23.252;2022-07-23T14:44:21;95153.03;;;44.31;nan
9261;BME280;4667;42.726;23.252;2022-07-23T14:46:48;95154.16;;;44.38;nan
9261;BME280;4667;42.726;23.252;2022-07-23T14:49:15;95149.09;;;44.15;nan
9261;BME280;4667;42.726;23.252;2022-07-23T14:51:44;95147.41;;;44.00;nan
9261;BME280;4667;42.726;23.252;2022-07-23T14:54:11;95145.09;;;43.66;nan
9261;BME280;4667;42.726;23.252;2022-07-23T14:56:39;95141.91;;;43.19;nan
9261;BME280;4667;42.726;23.252;2022-07-23T14:59:06;95136.38;;;43.42;nan
9261;BME280;4667;42.726;23.252;2022-07-23T15:01:34;95136.38;;;43.42;nan
9261;BME280;4667;42.726;23.252;2022-07-23T15:04:01;95135.53;;;43.61;nan
9261;BME280;4667;42.726;23.252;2022-07-23T15:06:29;95137.19;;;43.76;nan
9261;BME280;4667;42.726;23.252;2022-07-23T15:08:57;95131.78;;;43.59;nan
9261;BME280;4667;42.726;23.252;2022-07-23T15:11:25;95134.25;;;43.43;nan
9261;BME280;4667;42.726;23.252;2022-07-23T15:13:53;95129.44;;;43.45;nan
9261;BME280;4667;42.726;23.252;2022-07-23T15:16:20;95127.34;;;42.74;nan
9261;BME280;4667;42.726;23.252;2022-07-23T15:18:47;95130.19;;;42.74;nan
9261;BME280;4667;42.726;23.252;2022-07-23T15:21:14;95132.84;;;42.92;nan
9261;BME280;4667;42.726;23.252;2022-07-23T15:23:41;95119.38;;;42.83;nan
9261;BME280;4667;42.726;23.252;2022-07-23T15:26:09;95116.06;;;42.86;nan
9261;BME280;4667;42.726;23.252;2022-07-23T15:28:36;95109.69;;;42.66;nan
9261;BME280;4667;42.726;23.252;2022-07-23T15:31:03;95121.63;;;42.05;nan
9261;BME280;4667;42.726;23.252;2022-07-23T15:33:30;95120.88;;;41.95;nan
9261;BME280;4667;42.726;23.252;2022-07-23T15:35:57;95113.06;;;42.05;nan
9261;BME280;4667;42.726;23.252;2022-07-23T15:38:25;95119.50;;;41.77;nan
9261;BME280;4667;42.726;23.252;2022-07-23T15:40:53;95116.63;;;41.48;nan
9261;BME280;4667;42.726;23.252;2022-07-23T15:43:22;95126.97;;;41.53;nan
9261;BME280;4667;42.726;23.252;2022-07-23T15:45:49;95125.25;;;41.31;nan
9261;BME280;4667;42.726;23.252;2022-07-23T15:48:18;95121.06;;;41.32;nan
9261;BME280;4667;42.726;23.252;2022-07-23T15:50:45;95127.44;;;41.13;nan
9261;BME280;4667;42.726;23.252;2022-07-23T15:53:12;95120.28;;;40.75;nan
9261;BME280;4667;42.726;23.252;2022-07-23T15:55:39;95122.78;;;40.71;nan
9261;BME280;4667;42.726;23.252;2022-07-23T15:58:06;95124.47;;;40.30;nan
9261;BME280;4667;42.726;23.252;2022-07-23T16:00:35;95125.66;;;39.93;nan
9261;BME280;4667;42.726;23.252;2022-07-23T16:03:02;95122.91;;;40.03;nan
9261;BME280;4667;42.726;23.252;2022-07-23T16:05:29;95125.09;;;39.94;nan
9261;BME280;4667;42.726;23.252;2022-07-23T16:07:59;95125.09;;;39.94;nan
9261;BME280;4667;42.726;23.252;2022-07-23T16:10:26;95125.47;;;39.39;nan
9261;BME280;4667;42.726;23.252;2022-07-23T16:12:53;95123.00;;;39.18;nan
9261;BME280;4667;42.726;23.252;2022-07-23T16:15:20;95130.19;;;38.95;nan
9261;BME280;4667;42.726;23.252;2022-07-23T16:17:48;95133.28;;;38.57;nan
9261;BME280;4667;42.726;23.252;2022-07-23T16:20:24;95126.16;;;38.08;nan
9261;BME280;4667;42.726;23.252;2022-07-23T16:26:08;95131.03;;;37.37;nan
9261;BME280;4667;42.726;23.252;2022-07-23T16:28:35;95130.28;;;37.06;nan
9261;BME280;4667;42.726;23.252;2022-07-23T16:31:03;95122.19;;;36.80;nan
9261;BME280;4667;42.726;23.252;2022-07-23T16:33:32;95120.06;;;36.58;nan
9261;BME280;4667;42.726;23.252;2022-07-23T16:35:59;95133.03;;;36.46;nan
9261;BME280;4667;42.726;23.252;2022-07-23T16:38:26;95136.00;;;36.32;nan
9261;BME280;4667;42.726;23.252;2022-07-23T16:40:53;95132.78;;;36.21;nan
9261;BME280;4667;42.726;23.252;2022-07-23T16:43:21;95126.13;;;36.03;nan
9261;BME280;4667;42.726;23.252;2022-07-23T16:45:48;95130.00;;;35.85;nan
9261;BME280;4667;42.726;23.252;2022-07-23T16:48:15;95128.63;;;35.78;nan
9261;BME280;4667;42.726;23.252;2022-07-23T16:50:43;95130.63;;;35.63;nan
9261;BME280;4667;42.726;23.252;2022-07-23T16:53:10;95130.34;;;35.53;nan
9261;BME280;4667;42.726;23.252;2022-07-23T16:55:36;95116.94;;;35.38;nan
9261;BME280;4667;42.726;23.252;2022-07-23T16:58:05;95128.91;;;35.31;nan
9261;BME280;4667;42.726;23.252;2022-07-23T17:00:32;95125.78;;;35.14;nan
9261;BME280;4667;42.726;23.252;2022-07-23T17:02:59;95134.50;;;35.03;nan
9261;BME280;4667;42.726;23.252;2022-07-23T17:05:26;95127.09;;;34.92;nan
9261;BME280;4667;42.726;23.252;2022-07-23T17:07:55;95129.25;;;34.78;nan
9261;BME280;4667;42.726;23.252;2022-07-23T17:10:22;95123.13;;;34.67;nan
9261;BME280;4667;42.726;23.252;2022-07-23T17:12:49;95131.63;;;34.54;nan
9261;BME280;4667;42.726;23.252;2022-07-23T17:15:19;95131.44;;;34.38;nan
9261;BME280;4667;42.726;23.252;2022-07-23T17:17:46;95121.66;;;34.32;nan
9261;BME280;4667;42.726;23.252;2022-07-23T17:20:14;95124.03;;;34.15;nan
9261;BME280;4667;42.726;23.252;2022-07-23T17:22:41;95128.78;;;33.86;nan
9261;BME280;4667;42.726;23.252;2022-07-23T17:25:15;95128.78;;;33.73;nan
9261;BME280;4667;42.726;23.252;2022-07-23T17:27:48;95121.00;;;33.52;nan
9261;BME280;4667;42.726;23.252;2022-07-23T17:30:15;95125.97;;;33.33;nan
9261;BME280;4667;42.726;23.252;2022-07-23T17:32:44;95125.78;;;33.18;nan
9261;BME280;4667;42.726;23.252;2022-07-23T17:35:20;95123.22;;;33.01;nan
9261;BME280;4667;42.726;23.252;2022-07-23T17:37:47;95120.72;;;32.85;nan
9261;BME280;4667;42.726;23.252;2022-07-23T17:40:18;95122.75;;;32.71;nan
9261;BME280;4667;42.726;23.252;2022-07-23T17:42:45;95129.91;;;32.53;nan
9261;BME280;4667;42.726;23.252;2022-07-23T17:45:12;95142.97;;;32.32;nan
9261;BME280;4667;42.726;23.252;2022-07-23T17:47:41;95142.06;;;32.05;nan
9261;BME280;4667;42.726;23.252;2022-07-23T17:50:09;95139.78;;;32.03;nan
9261;BME280;4667;42.726;23.252;2022-07-23T17:52:43;95143.03;;;31.89;nan
9261;BME280;4667;42.726;23.252;2022-07-23T17:55:10;95143.59;;;31.87;nan
9261;BME280;4667;42.726;23.252;2022-07-23T17:57:39;95137.06;;;31.79;nan
9261;BME280;4667;42.726;23.252;2022-07-23T18:00:08;95145.91;;;31.83;nan
9261;BME280;4667;42.726;23.252;2022-07-23T18:02:35;95148.78;;;31.78;nan
9261;BME280;4667;42.726;23.252;2022-07-23T18:05:02;95155.59;;;31.64;nan
9261;BME280;4667;42.726;23.252;2022-07-23T18:07:32;95161.13;;;31.45;nan
9261;BME280;4667;42.726;23.252;2022-07-23T18:09:59;95159.22;;;31.34;nan
9261;BME280;4667;42.726;23.252;2022-07-23T18:12:26;95162.56;;;31.03;nan
9261;BME280;4667;42.726;23.252;2022-07-23T18:14:54;95163.31;;;31.03;nan
9261;BME280;4667;42.726;23.252;2022-07-23T18:17:21;95157.06;;;30.92;nan
9261;BME280;4667;42.726;23.252;2022-07-23T18:19:48;95158.22;;;30.77;nan
9261;BME280;4667;42.726;23.252;2022-07-23T18:22:14;95165.94;;;30.66;nan
9261;BME280;4667;42.726;23.252;2022-07-23T18:24:41;95164.81;;;30.45;nan
9261;BME280;4667;42.726;23.252;2022-07-23T18:27:08;95170.44;;;30.33;nan
9261;BME280;4667;42.726;23.252;2022-07-23T18:29:35;95164.47;;;30.18;nan
9261;BME280;4667;42.726;23.252;2022-07-23T18:32:04;95168.56;;;30.12;nan
9261;BME280;4667;42.726;23.252;2022-07-23T18:34:31;95167.84;;;30.06;nan
9261;BME280;4667;42.726;23.252;2022-07-23T18:36:59;95166.41;;;29.82;nan
9261;BME280;4667;42.726;23.252;2022-07-23T18:39:26;95170.03;;;29.66;nan
9261;BME280;4667;42.726;23.252;2022-07-23T18:41:53;95175.16;;;29.51;nan
9261;BME280;4667;42.726;23.252;2022-07-23T18:44:20;95178.47;;;29.44;nan
9261;BME280;4667;42.726;23.252;2022-07-23T18:46:46;95191.47;;;29.36;nan
9261;BME280;4667;42.726;23.252;2022-07-23T18:49:17;95185.88;;;29.25;nan
9261;BME280;4667;42.726;23.252;2022-07-23T18:51:47;95190.47;;;29.11;nan
9261;BME280;4667;42.726;23.252;2022-07-23T18:54:14;95203.66;;;28.99;nan
9261;BME280;4667;42.726;23.252;2022-07-23T18:56:40;95192.53;;;28.88;nan
9261;BME280;4667;42.726;23.252;2022-07-23T18:59:07;95205.19;;;28.78;nan
9261;BME280;4667;42.726;23.252;2022-07-23T19:01:34;95194.78;;;28.78;nan
9261;BME280;4667;42.726;23.252;2022-07-23T19:04:01;95197.31;;;28.65;nan
9261;BME280;4667;42.726;23.252;2022-07-23T19:06:30;95203.13;;;28.62;nan
9261;BME280;4667;42.726;23.252;2022-07-23T19:08:57;95202.13;;;28.54;nan
9261;BME280;4667;42.726;23.252;2022-07-23T19:11:25;95197.53;;;28.45;nan
9261;BME280;4667;42.726;23.252;2022-07-23T19:13:52;95202.84;;;28.32;nan
9261;BME280;4667;42.726;23.252;2022-07-23T19:16:18;95206.63;;;28.18;nan
9261;BME280;4667;42.726;23.252;2022-07-23T19:18:45;95220.56;;;28.18;nan
9261;BME280;4667;42.726;23.252;2022-07-23T19:21:12;95216.47;;;28.19;nan
9261;BME280;4667;42.726;23.252;2022-07-23T19:23:41;95214.88;;;28.01;nan
9261;BME280;4667;42.726;23.252;2022-07-23T19:26:07;95219.66;;;27.95;nan
9261;BME280;4667;42.726;23.252;2022-07-23T19:28:34;95220.19;;;27.88;nan
9261;BME280;4667;42.726;23.252;2022-07-23T19:31:04;95223.41;;;27.75;nan
9261;BME280;4667;42.726;23.252;2022-07-23T19:33:31;95218.28;;;27.63;nan
9261;BME280;4667;42.726;23.252;2022-07-23T19:35:58;95224.56;;;27.52;nan
9261;BME280;4667;42.726;23.252;2022-07-23T19:38:26;95223.22;;;27.47;nan
9261;BME280;4667;42.726;23.252;2022-07-23T19:40:54;95225.69;;;27.34;nan
9261;BME280;4667;42.726;23.252;2022-07-23T19:43:21;95226.34;;;27.18;nan
9261;BME280;4667;42.726;23.252;2022-07-23T19:45:48;95224.25;;;27.07;nan
9261;BME280;4667;42.726;23.252;2022-07-23T19:48:14;95229.47;;;26.94;nan
9261;BME280;4667;42.726;23.252;2022-07-23T19:50:41;95231.44;;;26.88;nan
9261;BME280;4667;42.726;23.252;2022-07-23T19:53:08;95235.13;;;26.79;nan
9261;BME280;4667;42.726;23.252;2022-07-23T19:55:35;95235.00;;;26.63;nan
9261;BME280;4667;42.726;23.252;2022-07-23T19:58:03;95232.66;;;26.56;nan
9261;BME280;4667;42.726;23.252;2022-07-23T20:00:30;95232.31;;;26.48;nan
9261;BME280;4667;42.726;23.252;2022-07-23T20:02:57;95234.47;;;26.33;nan
9261;BME280;4667;42.726;23.252;2022-07-23T20:05:24;95233.41;;;26.30;nan
9261;BME280;4667;42.726;23.252;2022-07-23T20:07:51;95229.50;;;26.22;nan
9261;BME280;4667;42.726;23.252;2022-07-23T20:10:17;95225.44;;;26.18;nan
9261;BME280;4667;42.726;23.252;2022-07-23T20:12:45;95222.94;;;26.20;nan
9261;BME280;4667;42.726;23.252;2022-07-23T20:15:13;95228.28;;;26.23;nan
9261;BME280;4667;42.726;23.252;2022-07-23T20:17:40;95230.59;;;26.25;nan
9261;BME280;4667;42.726;23.252;2022-07-23T20:20:08;95231.22;;;26.14;nan
9261;BME280;4667;42.726;23.252;2022-07-23T20:22:35;95230.56;;;26.05;nan
9261;BME280;4667;42.726;23.252;2022-07-23T20:25:03;95236.41;;;26.07;nan
9261;BME280;4667;42.726;23.252;2022-07-23T20:27:30;95240.72;;;25.87;nan
9261;BME280;4667;42.726;23.252;2022-07-23T20:29:57;95241.97;;;25.86;nan
9261;BME280;4667;42.726;23.252;2022-07-23T20:32:25;95235.59;;;25.80;nan
9261;BME280;4667;42.726;23.252;2022-07-23T20:34:52;95239.56;;;25.74;nan
9261;BME280;4667;42.726;23.252;2022-07-23T20:37:19;95246.00;;;25.65;nan
9261;BME280;4667;42.726;23.252;2022-07-23T20:39:46;95248.25;;;25.61;nan
9261;BME280;4667;42.726;23.252;2022-07-23T20:42:12;95243.34;;;25.56;nan
9261;BME280;4667;42.726;23.252;2022-07-23T20:44:39;95240.41;;;25.45;nan
9261;BME280;4667;42.726;23.252;2022-07-23T20:47:06;95243.88;;;25.40;nan
9261;BME280;4667;42.726;23.252;2022-07-23T20:49:34;95242.09;;;25.22;nan
9261;BME280;4667;42.726;23.252;2022-07-23T20:52:01;95252.81;;;25.14;nan
9261;BME280;4667;42.726;23.252;2022-07-23T20:54:28;95257.78;;;25.25;nan
9261;BME280;4667;42.726;23.252;2022-07-23T20:56:55;95253.19;;;25.22;nan
9261;BME280;4667;42.726;23.252;2022-07-23T20:59:21;95251.03;;;25.11;nan
9261;BME280;4667;42.726;23.252;2022-07-23T21:01:48;95254.28;;;25.10;nan
9261;BME280;4667;42.726;23.252;2022-07-23T21:04:15;95252.00;;;25.08;nan
9261;BME280;4667;42.726;23.252;2022-07-23T21:06:43;95249.72;;;25.07;nan
9261;BME280;4667;42.726;23.252;2022-07-23T21:09:10;95252.47;;;25.07;nan
9261;BME280;4667;42.726;23.252;2022-07-23T21:11:36;95253.34;;;24.98;nan
9261;BME280;4667;42.726;23.252;2022-07-23T21:14:03;95251.47;;;24.90;nan
9261;BME280;4667;42.726;23.252;2022-07-23T21:16:30;95254.75;;;24.79;nan
9261;BME280;4667;42.726;23.252;2022-07-23T21:18:57;95261.56;;;24.78;nan
9261;BME280;4667;42.726;23.252;2022-07-23T21:21:24;95255.94;;;24.72;nan
9261;BME280;4667;42.726;23.252;2022-07-23T21:23:52;95250.97;;;24.62;nan
9261;BME280;4667;42.726;23.252;2022-07-23T21:26:19;95264.53;;;24.60;nan
9261;BME280;4667;42.726;23.252;2022-07-23T21:28:46;95263.00;;;24.59;nan
9261;BME280;4667;42.726;23.252;2022-07-23T21:31:13;95261.66;;;24.54;nan
9261;BME280;4667;42.726;23.252;2022-07-23T21:33:40;95264.34;;;24.49;nan
9261;BME280;4667;42.726;23.252;2022-07-23T21:36:08;95263.56;;;24.33;nan
9261;BME280;4667;42.726;23.252;2022-07-23T21:38:35;95263.91;;;24.26;nan
9261;BME280;4667;42.726;23.252;2022-07-23T21:41:04;95274.63;;;24.19;nan
9261;BME280;4667;42.726;23.252;2022-07-23T21:43:31;95275.88;;;24.09;nan
9261;BME280;4667;42.726;23.252;2022-07-23T21:45:58;95275.19;;;23.99;nan
9261;BME280;4667;42.726;23.252;2022-07-23T21:48:24;95272.78;;;23.92;nan
9261;BME280;4667;42.726;23.252;2022-07-23T21:50:51;95273.75;;;23.89;nan
9261;BME280;4667;42.726;23.252;2022-07-23T21:53:18;95276.41;;;23.83;nan
9261;BME280;4667;42.726;23.252;2022-07-23T21:55:45;95279.22;;;23.74;nan
9261;BME280;4667;42.726;23.252;2022-07-23T21:58:13;95278.47;;;23.74;nan
9261;BME280;4667;42.726;23.252;2022-07-23T22:00:40;95277.88;;;23.70;nan
9261;BME280;4667;42.726;23.252;2022-07-23T22:03:07;95279.00;;;23.63;nan
9261;BME280;4667;42.726;23.252;2022-07-23T22:05:34;95285.56;;;23.66;nan
9261;BME280;4667;42.726;23.252;2022-07-23T22:08:01;95279.78;;;23.54;nan
9261;BME280;4667;42.726;23.252;2022-07-23T22:10:28;95287.31;;;23.54;nan
9261;BME280;4667;42.726;23.252;2022-07-23T22:12:55;95284.75;;;23.50;nan
9261;BME280;4667;42.726;23.252;2022-07-23T22:15:24;95282.94;;;23.47;nan
9261;BME280;4667;42.726;23.252;2022-07-23T22:17:51;95279.09;;;23.36;nan
9261;BME280;4667;42.726;23.252;2022-07-23T22:20:18;95282.06;;;23.32;nan
9261;BME280;4667;42.726;23.252;2022-07-23T22:22:49;95288.22;;;23.27;nan
9261;BME280;4667;42.726;23.252;2022-07-23T22:25:17;95288.56;;;23.20;nan
9261;BME280;4667;42.726;23.252;2022-07-23T22:27:44;95291.66;;;23.13;nan
9261;BME280;4667;42.726;23.252;2022-07-23T22:30:14;95284.63;;;23.03;nan
9261;BME280;4667;42.726;23.252;2022-07-23T22:32:43;95285.53;;;23.09;nan
9261;BME280;4667;42.726;23.252;2022-07-23T22:35:10;95288.75;;;23.07;nan
9261;BME280;4667;42.726;23.252;2022-07-23T22:37:37;95290.59;;;23.10;nan
9261;BME280;4667;42.726;23.252;2022-07-23T22:40:05;95294.47;;;23.04;nan
9261;BME280;4667;42.726;23.252;2022-07-23T22:42:32;95285.22;;;23.07;nan
9261;BME280;4667;42.726;23.252;2022-07-23T22:44:59;95289.84;;;23.01;nan
9261;BME280;4667;42.726;23.252;2022-07-23T22:47:26;95292.50;;;22.95;nan
9261;BME280;4667;42.726;23.252;2022-07-23T22:49:54;95293.25;;;22.96;nan
9261;BME280;4667;42.726;23.252;2022-07-23T22:52:21;95288.38;;;22.91;nan
9261;BME280;4667;42.726;23.252;2022-07-23T22:54:47;95291.44;;;22.93;nan
9261;BME280;4667;42.726;23.252;2022-07-23T22:57:14;95292.53;;;22.86;nan
9261;BME280;4667;42.726;23.252;2022-07-23T22:59:41;95296.22;;;22.83;nan
9261;BME280;4667;42.726;23.252;2022-07-23T23:02:08;95294.53;;;22.76;nan
9261;BME280;4667;42.726;23.252;2022-07-23T23:04:35;95300.66;;;22.71;nan
9261;BME280;4667;42.726;23.252;2022-07-23T23:07:03;95304.22;;;22.72;nan
9261;BME280;4667;42.726;23.252;2022-07-23T23:09:30;95297.16;;;22.62;nan
9261;BME280;4667;42.726;23.252;2022-07-23T23:11:57;95300.69;;;22.53;nan
9261;BME280;4667;42.726;23.252;2022-07-23T23:14:24;95302.72;;;22.44;nan
9261;BME280;4667;42.726;23.252;2022-07-23T23:16:51;95298.56;;;22.48;nan